sensor_id;sensor_type;location;lat;lon;timestamp;temperature;humidity
51733;DHT22;39139;53.144;6.244;2022-07-23T00:01:28;12.90;99.90
51733;DHT22;39139;53.144;6.244;2022-07-23T00:03:54;12.90;99.90
51733;DHT22;39139;53.144;6.244;2022-07-23T00:06:20;13.00;99.90
51733;DHT22;39139;53.144;6.244;2022-07-23T00:08:46;12.90;99.90
51733;DHT22;39139;53.144;6.244;2022-07-23T00:11:12;12.90;99.90
51733;DHT22;39139;53.144;6.244;2022-07-23T00:13:38;13.00;99.90
51733;DHT22;39139;53.144;6.244;2022-07-23T00:16:04;13.00;99.90
51733;DHT22;39139;53.144;6.244;2022-07-23T00:18:29;12.80;99.90
51733;DHT22;39139;53.144;6.244;2022-07-23T00:20:55;13.00;99.90
51733;DHT22;39139;53.144;6.244;2022-07-23T00:23:21;12.80;99.90
51733;DHT22;39139;53.144;6.244;2022-07-23T00:25:47;12.60;99.90
51733;DHT22;39139;53.144;6.244;2022-07-23T00:28:12;12.60;99.90
51733;DHT22;39139;53.144;6.244;2022-07-23T00:30:38;12.80;99.90
51733;DHT22;39139;53.144;6.244;2022-07-23T00:33:06;12.60;99.90
51733;DHT22;39139;53.144;6.244;2022-07-23T00:35:35;12.80;99.90
51733;DHT22;39139;53.144;6.244;2022-07-23T00:38:02;12.70;99.90
51733;DHT22;39139;53.144;6.244;2022-07-23T00:40:29;12.70;99.90
51733;DHT22;39139;53.144;6.244;2022-07-23T00:42:55;12.70;99.90
51733;DHT22;39139;53.144;6.244;2022-07-23T00:45:21;12.70;99.90
51733;DHT22;39139;53.144;6.244;2022-07-23T00:47:46;12.40;99.90
51733;DHT22;39139;53.144;6.244;2022-07-23T00:50:13;12.60;99.90
51733;DHT22;39139;53.144;6.244;2022-07-23T00:52:39;12.50;99.90
51733;DHT22;39139;53.144;6.244;2022-07-23T00:55:06;12.50;99.90
51733;DHT22;39139;53.144;6.244;2022-07-23T00:57:32;12.50;99.90
51733;DHT22;39139;53.144;6.244;2022-07-23T00:59:58;12.30;99.90
51733;DHT22;39139;53.144;6.244;2022-07-23T01:02:25;12.30;99.90
51733;DHT22;39139;53.144;6.244;2022-07-23T01:04:51;12.20;99.90
51733;DHT22;39139;53.144;6.244;2022-07-23T01:07:17;12.40;99.90
51733;DHT22;39139;53.144;6.244;2022-07-23T01:09:45;12.40;99.90
51733;DHT22;39139;53.144;6.244;2022-07-23T01:12:11;12.40;99.90
51733;DHT22;39139;53.144;6.244;2022-07-23T01:14:37;12.40;99.90
51733;DHT22;39139;53.144;6.244;2022-07-23T01:17:03;12.10;99.90
51733;DHT22;39139;53.144;6.244;2022-07-23T01:19:29;12.20;99.90
51733;DHT22;39139;53.144;6.244;2022-07-23T01:21:57;12.10;99.90
51733;DHT22;39139;53.144;6.244;2022-07-23T01:24:22;12.20;99.90
51733;DHT22;39139;53.144;6.244;2022-07-23T01:26:49;12.10;99.90
51733;DHT22;39139;53.144;6.244;2022-07-23T01:29:16;12.10;99.90
51733;DHT22;39139;53.144;6.244;2022-07-23T01:31:43;12.20;99.90
51733;DHT22;39139;53.144;6.244;2022-07-23T01:34:09;11.90;99.90
51733;DHT22;39139;53.144;6.244;2022-07-23T01:36:36;12.00;99.90
51733;DHT22;39139;53.144;6.244;2022-07-23T01:39:03;12.00;99.90
51733;DHT22;39139;53.144;6.244;2022-07-23T01:41:29;12.00;99.90
51733;DHT22;39139;53.144;6.244;2022-07-23T01:43:54;11.70;99.90
51733;DHT22;39139;53.144;6.244;2022-07-23T01:46:20;11.70;99.90
51733;DHT22;39139;53.144;6.244;2022-07-23T01:48:45;11.80;99.90
51733;DHT22;39139;53.144;6.244;2022-07-23T01:51:11;11.90;99.90
51733;DHT22;39139;53.144;6.244;2022-07-23T01:53:37;11.80;99.90
51733;DHT22;39139;53.144;6.244;2022-07-23T01:56:03;11.80;99.90
51733;DHT22;39139;53.144;6.244;2022-07-23T01:58:29;11.80;99.90
51733;DHT22;39139;53.144;6.244;2022-07-23T02:00:55;11.60;99.90
51733;DHT22;39139;53.144;6.244;2022-07-23T02:03:21;11.60;99.90
51733;DHT22;39139;53.144;6.244;2022-07-23T02:05:47;11.60;99.90
51733;DHT22;39139;53.144;6.244;2022-07-23T02:08:12;11.70;99.90
51733;DHT22;39139;53.144;6.244;2022-07-23T02:10:38;11.60;99.90
51733;DHT22;39139;53.144;6.244;2022-07-23T02:13:04;11.50;99.90
51733;DHT22;39139;53.144;6.244;2022-07-23T02:15:29;11.60;99.90
51733;DHT22;39139;53.144;6.244;2022-07-23T02:17:55;11.60;99.90
51733;DHT22;39139;53.144;6.244;2022-07-23T02:20:21;11.40;99.90
51733;DHT22;39139;53.144;6.244;2022-07-23T02:22:47;11.30;99.90
51733;DHT22;39139;53.144;6.244;2022-07-23T02:25:13;11.30;99.90
51733;DHT22;39139;53.144;6.244;2022-07-23T02:27:39;11.60;99.90
51733;DHT22;39139;53.144;6.244;2022-07-23T02:30:06;11.40;99.90
51733;DHT22;39139;53.144;6.244;2022-07-23T02:32:32;11.40;99.90
51733;DHT22;39139;53.144;6.244;2022-07-23T02:34:57;11.20;99.90
51733;DHT22;39139;53.144;6.244;2022-07-23T02:37:23;11.20;99.90
51733;DHT22;39139;53.144;6.244;2022-07-23T02:39:49;11.10;99.90
51733;DHT22;39139;53.144;6.244;2022-07-23T02:42:16;11.20;99.90
51733;DHT22;39139;53.144;6.244;2022-07-23T02:44:42;11.30;99.90
51733;DHT22;39139;53.144;6.244;2022-07-23T02:47:07;11.10;99.90
51733;DHT22;39139;53.144;6.244;2022-07-23T02:49:33;11.20;99.90
51733;DHT22;39139;53.144;6.244;2022-07-23T02:51:59;11.30;99.90
51733;DHT22;39139;53.144;6.244;2022-07-23T02:54:24;11.20;99.90
51733;DHT22;39139;53.144;6.244;2022-07-23T02:56:50;11.30;99.90
51733;DHT22;39139;53.144;6.244;2022-07-23T02:59:17;11.20;99.90
51733;DHT22;39139;53.144;6.244;2022-07-23T03:01:43;11.10;99.90
51733;DHT22;39139;53.144;6.244;2022-07-23T03:04:09;11.00;99.90
51733;DHT22;39139;53.144;6.244;2022-07-23T03:06:35;10.90;99.90
51733;DHT22;39139;53.144;6.244;2022-07-23T03:09:00;11.00;99.90
51733;DHT22;39139;53.144;6.244;2022-07-23T03:11:28;11.10;99.90
51733;DHT22;39139;53.144;6.244;2022-07-23T03:13:54;11.10;99.90
51733;DHT22;39139;53.144;6.244;2022-07-23T03:16:20;11.00;99.90
51733;DHT22;39139;53.144;6.244;2022-07-23T03:18:45;11.10;99.90
51733;DHT22;39139;53.144;6.244;2022-07-23T03:21:11;10.90;99.90
51733;DHT22;39139;53.144;6.244;2022-07-23T03:23:36;11.00;99.90
51733;DHT22;39139;53.144;6.244;2022-07-23T03:26:02;11.10;99.90
51733;DHT22;39139;53.144;6.244;2022-07-23T03:28:28;11.10;99.90
51733;DHT22;39139;53.144;6.244;2022-07-23T03:30:53;10.90;99.90
51733;DHT22;39139;53.144;6.244;2022-07-23T03:33:20;11.10;99.90
51733;DHT22;39139;53.144;6.244;2022-07-23T03:35:46;11.00;99.90
51733;DHT22;39139;53.144;6.244;2022-07-23T03:38:13;11.10;99.90
51733;DHT22;39139;53.144;6.244;2022-07-23T03:40:39;11.00;99.90
51733;DHT22;39139;53.144;6.244;2022-07-23T03:43:04;10.90;99.90
51733;DHT22;39139;53.144;6.244;2022-07-23T03:45:31;11.00;99.90
51733;DHT22;39139;53.144;6.244;2022-07-23T03:47:57;11.20;99.90
51733;DHT22;39139;53.144;6.244;2022-07-23T03:50:22;10.90;99.90
51733;DHT22;39139;53.144;6.244;2022-07-23T03:52:48;11.00;99.90
51733;DHT22;39139;53.144;6.244;2022-07-23T03:55:14;11.10;99.90
51733;DHT22;39139;53.144;6.244;2022-07-23T03:57:40;11.10;99.90
51733;DHT22;39139;53.144;6.244;2022-07-23T04:00:07;10.90;99.90
51733;DHT22;39139;53.144;6.244;2022-07-23T04:02:34;11.00;99.90
51733;DHT22;39139;53.144;6.244;2022-07-23T04:05:00;10.80;99.90
51733;DHT22;39139;53.144;6.244;2022-07-23T04:07:26;10.90;99.90
51733;DHT22;39139;53.144;6.244;2022-07-23T04:09:52;10.80;99.90
51733;DHT22;39139;53.144;6.244;2022-07-23T04:12:17;10.90;99.90
51733;DHT22;39139;53.144;6.244;2022-07-23T04:14:43;10.80;99.90
51733;DHT22;39139;53.144;6.244;2022-07-23T04:17:09;10.90;99.90
51733;DHT22;39139;53.144;6.244;2022-07-23T04:19:35;10.90;99.90
51733;DHT22;39139;53.144;6.244;2022-07-23T04:22:05;11.00;99.90
51733;DHT22;39139;53.144;6.244;2022-07-23T04:24:31;11.20;99.90
51733;DHT22;39139;53.144;6.244;2022-07-23T04:26:57;11.00;99.90
51733;DHT22;39139;53.144;6.244;2022-07-23T04:29:23;10.90;99.90
51733;DHT22;39139;53.144;6.244;2022-07-23T04:31:49;11.00;99.90
51733;DHT22;39139;53.144;6.244;2022-07-23T04:34:15;11.00;99.90
51733;DHT22;39139;53.144;6.244;2022-07-23T04:36:41;11.20;99.90
51733;DHT22;39139;53.144;6.244;2022-07-23T04:39:06;11.20;99.90
51733;DHT22;39139;53.144;6.244;2022-07-23T04:41:32;11.40;99.90
51733;DHT22;39139;53.144;6.244;2022-07-23T04:43:59;11.50;99.90
51733;DHT22;39139;53.144;6.244;2022-07-23T04:46:25;11.50;99.90
51733;DHT22;39139;53.144;6.244;2022-07-23T04:48:51;11.40;99.90
51733;DHT22;39139;53.144;6.244;2022-07-23T04:51:16;11.60;99.90
51733;DHT22;39139;53.144;6.244;2022-07-23T04:53:42;11.70;99.90
51733;DHT22;39139;53.144;6.244;2022-07-23T04:56:07;11.90;99.90
51733;DHT22;39139;53.144;6.244;2022-07-23T04:58:33;11.50;99.90
51733;DHT22;39139;53.144;6.244;2022-07-23T05:00:59;11.70;99.90
51733;DHT22;39139;53.144;6.244;2022-07-23T05:03:25;11.70;99.90
51733;DHT22;39139;53.144;6.244;2022-07-23T05:05:50;11.50;99.90
51733;DHT22;39139;53.144;6.244;2022-07-23T05:08:16;11.60;99.90
51733;DHT22;39139;53.144;6.244;2022-07-23T05:10:42;12.40;99.90
51733;DHT22;39139;53.144;6.244;2022-07-23T05:13:07;11.90;99.90
51733;DHT22;39139;53.144;6.244;2022-07-23T05:15:33;12.10;99.90
51733;DHT22;39139;53.144;6.244;2022-07-23T05:17:58;12.20;99.90
51733;DHT22;39139;53.144;6.244;2022-07-23T05:20:24;12.10;99.90
51733;DHT22;39139;53.144;6.244;2022-07-23T05:22:50;12.20;99.90
51733;DHT22;39139;53.144;6.244;2022-07-23T05:25:15;12.20;99.90
51733;DHT22;39139;53.144;6.244;2022-07-23T05:27:41;12.40;99.90
51733;DHT22;39139;53.144;6.244;2022-07-23T05:30:07;12.60;99.90
51733;DHT22;39139;53.144;6.244;2022-07-23T05:32:33;12.80;99.90
51733;DHT22;39139;53.144;6.244;2022-07-23T05:34:58;12.90;99.90
51733;DHT22;39139;53.144;6.244;2022-07-23T05:37:24;12.80;99.90
51733;DHT22;39139;53.144;6.244;2022-07-23T05:39:50;12.90;99.90
51733;DHT22;39139;53.144;6.244;2022-07-23T05:42:15;13.10;99.90
51733;DHT22;39139;53.144;6.244;2022-07-23T05:44:41;13.20;99.90
51733;DHT22;39139;53.144;6.244;2022-07-23T05:47:06;13.10;99.90
51733;DHT22;39139;53.144;6.244;2022-07-23T05:49:32;13.30;99.90
51733;DHT22;39139;53.144;6.244;2022-07-23T05:51:57;13.50;99.90
51733;DHT22;39139;53.144;6.244;2022-07-23T05:54:24;13.50;99.90
51733;DHT22;39139;53.144;6.244;2022-07-23T05:56:49;13.60;99.90
51733;DHT22;39139;53.144;6.244;2022-07-23T05:59:15;14.10;99.90
51733;DHT22;39139;53.144;6.244;2022-07-23T06:01:41;14.20;99.90
51733;DHT22;39139;53.144;6.244;2022-07-23T06:04:07;14.20;99.90
51733;DHT22;39139;53.144;6.244;2022-07-23T06:06:33;14.20;99.90
51733;DHT22;39139;53.144;6.244;2022-07-23T06:08:59;14.50;99.90
51733;DHT22;39139;53.144;6.244;2022-07-23T06:11:24;14.60;99.90
51733;DHT22;39139;53.144;6.244;2022-07-23T06:13:50;14.60;99.90
51733;DHT22;39139;53.144;6.244;2022-07-23T06:16:15;14.60;99.90
51733;DHT22;39139;53.144;6.244;2022-07-23T06:18:41;14.70;99.90
51733;DHT22;39139;53.144;6.244;2022-07-23T06:21:07;14.80;99.90
51733;DHT22;39139;53.144;6.244;2022-07-23T06:23:32;14.50;99.90
51733;DHT22;39139;53.144;6.244;2022-07-23T06:25:58;14.40;99.90
51733;DHT22;39139;53.144;6.244;2022-07-23T06:28:23;14.60;99.90
51733;DHT22;39139;53.144;6.244;2022-07-23T06:30:49;14.50;99.90
51733;DHT22;39139;53.144;6.244;2022-07-23T06:33:15;14.60;99.90
51733;DHT22;39139;53.144;6.244;2022-07-23T06:35:40;15.00;99.90
51733;DHT22;39139;53.144;6.244;2022-07-23T06:38:06;14.90;99.90
51733;DHT22;39139;53.144;6.244;2022-07-23T06:40:32;15.10;99.90
51733;DHT22;39139;53.144;6.244;2022-07-23T06:42:57;15.00;99.90
51733;DHT22;39139;53.144;6.244;2022-07-23T06:45:23;15.20;99.90
51733;DHT22;39139;53.144;6.244;2022-07-23T06:47:49;15.40;99.90
51733;DHT22;39139;53.144;6.244;2022-07-23T06:50:14;15.60;99.90
51733;DHT22;39139;53.144;6.244;2022-07-23T06:52:40;15.50;99.90
51733;DHT22;39139;53.144;6.244;2022-07-23T06:55:06;15.70;99.90
51733;DHT22;39139;53.144;6.244;2022-07-23T06:57:31;15.80;99.90
51733;DHT22;39139;53.144;6.244;2022-07-23T06:59:57;15.90;99.90
51733;DHT22;39139;53.144;6.244;2022-07-23T07:02:23;15.90;99.90
51733;DHT22;39139;53.144;6.244;2022-07-23T07:04:49;16.00;99.90
51733;DHT22;39139;53.144;6.244;2022-07-23T07:07:15;16.00;99.90
51733;DHT22;39139;53.144;6.244;2022-07-23T07:09:40;16.00;99.90
51733;DHT22;39139;53.144;6.244;2022-07-23T07:12:06;16.10;99.90
51733;DHT22;39139;53.144;6.244;2022-07-23T07:14:32;16.10;99.90
51733;DHT22;39139;53.144;6.244;2022-07-23T07:16:57;16.10;99.90
51733;DHT22;39139;53.144;6.244;2022-07-23T07:19:23;16.10;99.90
51733;DHT22;39139;53.144;6.244;2022-07-23T07:21:48;16.10;99.90
51733;DHT22;39139;53.144;6.244;2022-07-23T07:24:14;16.10;99.90
51733;DHT22;39139;53.144;6.244;2022-07-23T07:26:40;16.10;99.90
51733;DHT22;39139;53.144;6.244;2022-07-23T07:29:06;16.30;99.90
51733;DHT22;39139;53.144;6.244;2022-07-23T07:31:32;16.40;99.90
51733;DHT22;39139;53.144;6.244;2022-07-23T07:33:58;16.40;99.90
51733;DHT22;39139;53.144;6.244;2022-07-23T07:36:24;16.40;99.90
51733;DHT22;39139;53.144;6.244;2022-07-23T07:38:49;16.50;99.90
51733;DHT22;39139;53.144;6.244;2022-07-23T07:41:15;16.60;99.90
51733;DHT22;39139;53.144;6.244;2022-07-23T07:43:41;16.80;99.90
51733;DHT22;39139;53.144;6.244;2022-07-23T07:46:07;17.00;99.90
51733;DHT22;39139;53.144;6.244;2022-07-23T07:48:36;17.10;99.90
51733;DHT22;39139;53.144;6.244;2022-07-23T07:51:03;17.30;99.90
51733;DHT22;39139;53.144;6.244;2022-07-23T07:53:28;17.40;99.90
51733;DHT22;39139;53.144;6.244;2022-07-23T07:55:54;17.50;99.90
51733;DHT22;39139;53.144;6.244;2022-07-23T07:58:20;17.60;99.90
51733;DHT22;39139;53.144;6.244;2022-07-23T08:00:45;17.60;99.90
51733;DHT22;39139;53.144;6.244;2022-07-23T08:03:11;17.80;99.90
51733;DHT22;39139;53.144;6.244;2022-07-23T08:05:37;17.90;99.90
51733;DHT22;39139;53.144;6.244;2022-07-23T08:08:06;18.00;99.90
51733;DHT22;39139;53.144;6.244;2022-07-23T08:10:31;18.10;99.90
51733;DHT22;39139;53.144;6.244;2022-07-23T08:12:58;18.30;99.90
51733;DHT22;39139;53.144;6.244;2022-07-23T08:15:27;18.30;99.90
51733;DHT22;39139;53.144;6.244;2022-07-23T08:17:53;18.30;99.90
51733;DHT22;39139;53.144;6.244;2022-07-23T08:20:20;18.20;99.90
51733;DHT22;39139;53.144;6.244;2022-07-23T08:23:03;18.20;99.90
51733;DHT22;39139;53.144;6.244;2022-07-23T08:25:32;18.20;99.90
51733;DHT22;39139;53.144;6.244;2022-07-23T08:28:00;18.10;99.90
51733;DHT22;39139;53.144;6.244;2022-07-23T08:30:27;18.00;99.90
51733;DHT22;39139;53.144;6.244;2022-07-23T08:37:56;17.90;99.90
51733;DHT22;39139;53.144;6.244;2022-07-23T08:40:22;17.80;99.90
51733;DHT22;39139;53.144;6.244;2022-07-23T08:42:50;17.90;99.90
51733;DHT22;39139;53.144;6.244;2022-07-23T08:45:17;17.90;99.90
51733;DHT22;39139;53.144;6.244;2022-07-23T08:47:44;17.90;99.90
51733;DHT22;39139;53.144;6.244;2022-07-23T08:50:11;17.90;99.90
51733;DHT22;39139;53.144;6.244;2022-07-23T08:52:37;17.90;99.90
51733;DHT22;39139;53.144;6.244;2022-07-23T08:55:04;17.90;99.90
51733;DHT22;39139;53.144;6.244;2022-07-23T08:57:30;17.90;99.90
51733;DHT22;39139;53.144;6.244;2022-07-23T08:59:56;17.90;99.90
51733;DHT22;39139;53.144;6.244;2022-07-23T09:02:22;18.00;99.90
51733;DHT22;39139;53.144;6.244;2022-07-23T09:04:48;18.00;99.90
51733;DHT22;39139;53.144;6.244;2022-07-23T09:07:13;18.00;99.90
51733;DHT22;39139;53.144;6.244;2022-07-23T09:09:39;18.10;99.90
51733;DHT22;39139;53.144;6.244;2022-07-23T09:12:07;18.00;99.90
51733;DHT22;39139;53.144;6.244;2022-07-23T09:14:41;18.10;99.90
51733;DHT22;39139;53.144;6.244;2022-07-23T09:17:14;18.10;99.90
51733;DHT22;39139;53.144;6.244;2022-07-23T09:19:41;18.00;99.90
51733;DHT22;39139;53.144;6.244;2022-07-23T09:22:21;18.00;99.90
51733;DHT22;39139;53.144;6.244;2022-07-23T09:25:07;18.10;99.90
51733;DHT22;39139;53.144;6.244;2022-07-23T09:27:52;18.10;99.90
51733;DHT22;39139;53.144;6.244;2022-07-23T09:30:23;18.20;99.90
51733;DHT22;39139;53.144;6.244;2022-07-23T09:33:08;18.40;99.90
51733;DHT22;39139;53.144;6.244;2022-07-23T09:35:50;18.40;99.90
51733;DHT22;39139;53.144;6.244;2022-07-23T09:38:18;18.50;99.90
51733;DHT22;39139;53.144;6.244;2022-07-23T09:40:44;18.50;99.90
51733;DHT22;39139;53.144;6.244;2022-07-23T09:43:11;18.50;99.90
51733;DHT22;39139;53.144;6.244;2022-07-23T09:45:37;18.50;99.90
51733;DHT22;39139;53.144;6.244;2022-07-23T09:48:17;18.50;99.90
51733;DHT22;39139;53.144;6.244;2022-07-23T09:50:44;18.50;99.90
51733;DHT22;39139;53.144;6.244;2022-07-23T09:53:30;18.60;99.90
51733;DHT22;39139;53.144;6.244;2022-07-23T09:55:58;18.70;99.90
51733;DHT22;39139;53.144;6.244;2022-07-23T09:58:26;18.70;99.90
51733;DHT22;39139;53.144;6.244;2022-07-23T10:00:55;18.80;99.90
51733;DHT22;39139;53.144;6.244;2022-07-23T10:03:21;19.10;99.90
51733;DHT22;39139;53.144;6.244;2022-07-23T10:05:49;19.10;99.90
51733;DHT22;39139;53.144;6.244;2022-07-23T10:08:18;19.10;99.90
51733;DHT22;39139;53.144;6.244;2022-07-23T10:10:46;19.00;99.90
51733;DHT22;39139;53.144;6.244;2022-07-23T10:13:12;18.90;99.90
51733;DHT22;39139;53.144;6.244;2022-07-23T10:15:58;18.70;99.90
51733;DHT22;39139;53.144;6.244;2022-07-23T10:18:24;18.70;99.90
51733;DHT22;39139;53.144;6.244;2022-07-23T10:20:50;18.60;99.90
51733;DHT22;39139;53.144;6.244;2022-07-23T10:28:44;18.60;99.90
51733;DHT22;39139;53.144;6.244;2022-07-23T10:31:50;18.70;99.90
51733;DHT22;39139;53.144;6.244;2022-07-23T10:34:20;18.90;99.90
51733;DHT22;39139;53.144;6.244;2022-07-23T10:36:53;19.00;99.90
51733;DHT22;39139;53.144;6.244;2022-07-23T10:39:30;19.00;99.90
51733;DHT22;39139;53.144;6.244;2022-07-23T10:42:16;19.10;99.90
51733;DHT22;39139;53.144;6.244;2022-07-23T10:44:44;19.00;99.90
51733;DHT22;39139;53.144;6.244;2022-07-23T10:47:11;18.90;99.90
51733;DHT22;39139;53.144;6.244;2022-07-23T10:50:26;19.00;99.90
51733;DHT22;39139;53.144;6.244;2022-07-23T10:57:58;18.80;99.90
51733;DHT22;39139;53.144;6.244;2022-07-23T11:00:28;18.90;99.90
51733;DHT22;39139;53.144;6.244;2022-07-23T11:02:59;18.90;99.90
51733;DHT22;39139;53.144;6.244;2022-07-23T11:05:41;19.10;99.90
51733;DHT22;39139;53.144;6.244;2022-07-23T11:10:37;19.50;99.90
51733;DHT22;39139;53.144;6.244;2022-07-23T11:23:59;20.10;99.90
51733;DHT22;39139;53.144;6.244;2022-07-23T11:31:59;20.80;99.90
51733;DHT22;39139;53.144;6.244;2022-07-23T11:34:40;20.80;99.90
51733;DHT22;39139;53.144;6.244;2022-07-23T11:37:10;20.90;99.90
51733;DHT22;39139;53.144;6.244;2022-07-23T11:39:37;20.90;99.90
51733;DHT22;39139;53.144;6.244;2022-07-23T11:42:05;21.00;99.90
51733;DHT22;39139;53.144;6.244;2022-07-23T11:44:36;21.20;99.90
51733;DHT22;39139;53.144;6.244;2022-07-23T11:47:07;21.30;99.90
51733;DHT22;39139;53.144;6.244;2022-07-23T11:49:33;21.30;99.90
51733;DHT22;39139;53.144;6.244;2022-07-23T11:54:31;21.30;99.90
51733;DHT22;39139;53.144;6.244;2022-07-23T11:56:58;21.40;99.90
51733;DHT22;39139;53.144;6.244;2022-07-23T11:59:27;21.50;99.90
51733;DHT22;39139;53.144;6.244;2022-07-23T12:02:12;21.50;99.90
51733;DHT22;39139;53.144;6.244;2022-07-23T12:07:03;21.30;99.90
51733;DHT22;39139;53.144;6.244;2022-07-23T12:09:29;21.30;99.90
51733;DHT22;39139;53.144;6.244;2022-07-23T12:11:59;21.10;99.90
51733;DHT22;39139;53.144;6.244;2022-07-23T12:14:25;21.10;99.90
51733;DHT22;39139;53.144;6.244;2022-07-23T12:17:12;21.30;99.90
51733;DHT22;39139;53.144;6.244;2022-07-23T12:19:37;21.40;99.90
51733;DHT22;39139;53.144;6.244;2022-07-23T12:22:04;21.40;99.90
51733;DHT22;39139;53.144;6.244;2022-07-23T12:24:30;21.30;99.90
51733;DHT22;39139;53.144;6.244;2022-07-23T12:27:11;21.20;99.90
51733;DHT22;39139;53.144;6.244;2022-07-23T12:29:38;21.10;99.90
51733;DHT22;39139;53.144;6.244;2022-07-23T12:32:20;21.20;99.90
51733;DHT22;39139;53.144;6.244;2022-07-23T12:35:01;21.30;99.90
51733;DHT22;39139;53.144;6.244;2022-07-23T12:37:39;21.30;99.90
51733;DHT22;39139;53.144;6.244;2022-07-23T12:40:25;21.10;99.90
51733;DHT22;39139;53.144;6.244;2022-07-23T12:42:57;21.20;99.90
51733;DHT22;39139;53.144;6.244;2022-07-23T12:45:24;21.40;99.90
51733;DHT22;39139;53.144;6.244;2022-07-23T12:47:56;21.60;99.90
51733;DHT22;39139;53.144;6.244;2022-07-23T12:50:34;21.50;99.90
51733;DHT22;39139;53.144;6.244;2022-07-23T12:53:19;21.40;99.90
51733;DHT22;39139;53.144;6.244;2022-07-23T12:55:47;21.30;99.90
51733;DHT22;39139;53.144;6.244;2022-07-23T12:58:14;21.20;99.90
51733;DHT22;39139;53.144;6.244;2022-07-23T13:01:02;21.20;99.90
51733;DHT22;39139;53.144;6.244;2022-07-23T13:03:30;21.20;99.90
51733;DHT22;39139;53.144;6.244;2022-07-23T13:05:56;21.30;99.90
51733;DHT22;39139;53.144;6.244;2022-07-23T13:08:22;21.40;99.90
51733;DHT22;39139;53.144;6.244;2022-07-23T13:10:48;21.40;99.90
51733;DHT22;39139;53.144;6.244;2022-07-23T13:13:16;21.60;99.90
51733;DHT22;39139;53.144;6.244;2022-07-23T13:15:43;21.90;99.90
51733;DHT22;39139;53.144;6.244;2022-07-23T13:18:09;22.10;99.90
51733;DHT22;39139;53.144;6.244;2022-07-23T13:20:34;22.40;99.90
51733;DHT22;39139;53.144;6.244;2022-07-23T13:23:00;22.60;99.90
51733;DHT22;39139;53.144;6.244;2022-07-23T13:25:26;22.60;99.90
51733;DHT22;39139;53.144;6.244;2022-07-23T13:27:52;22.50;99.90
51733;DHT22;39139;53.144;6.244;2022-07-23T13:30:18;22.30;99.90
51733;DHT22;39139;53.144;6.244;2022-07-23T13:32:44;22.20;99.90
51733;DHT22;39139;53.144;6.244;2022-07-23T13:35:09;22.20;99.90
51733;DHT22;39139;53.144;6.244;2022-07-23T13:37:35;21.90;99.90
51733;DHT22;39139;53.144;6.244;2022-07-23T13:40:01;21.90;99.90
51733;DHT22;39139;53.144;6.244;2022-07-23T13:42:27;21.80;99.90
51733;DHT22;39139;53.144;6.244;2022-07-23T13:44:53;21.70;99.90
51733;DHT22;39139;53.144;6.244;2022-07-23T13:47:19;21.60;99.90
51733;DHT22;39139;53.144;6.244;2022-07-23T13:49:44;21.70;99.90
51733;DHT22;39139;53.144;6.244;2022-07-23T13:52:11;21.90;99.90
51733;DHT22;39139;53.144;6.244;2022-07-23T13:54:36;22.00;99.90
51733;DHT22;39139;53.144;6.244;2022-07-23T13:57:02;22.00;99.90
51733;DHT22;39139;53.144;6.244;2022-07-23T13:59:28;22.00;99.90
51733;DHT22;39139;53.144;6.244;2022-07-23T14:01:54;22.00;99.90
51733;DHT22;39139;53.144;6.244;2022-07-23T14:04:21;22.10;99.90
51733;DHT22;39139;53.144;6.244;2022-07-23T14:06:46;22.00;99.90
51733;DHT22;39139;53.144;6.244;2022-07-23T14:09:12;21.90;99.90
51733;DHT22;39139;53.144;6.244;2022-07-23T14:11:38;21.80;99.90
51733;DHT22;39139;53.144;6.244;2022-07-23T14:14:04;22.00;99.90
51733;DHT22;39139;53.144;6.244;2022-07-23T14:16:30;22.10;99.90
51733;DHT22;39139;53.144;6.244;2022-07-23T14:18:56;22.30;99.90
51733;DHT22;39139;53.144;6.244;2022-07-23T14:21:22;22.40;99.90
51733;DHT22;39139;53.144;6.244;2022-07-23T14:23:47;22.60;99.90
51733;DHT22;39139;53.144;6.244;2022-07-23T14:26:13;22.50;99.90
51733;DHT22;39139;53.144;6.244;2022-07-23T14:28:39;22.40;99.90
51733;DHT22;39139;53.144;6.244;2022-07-23T14:31:05;22.30;99.90
51733;DHT22;39139;53.144;6.244;2022-07-23T14:33:31;22.20;99.90
51733;DHT22;39139;53.144;6.244;2022-07-23T14:35:57;22.20;99.90
51733;DHT22;39139;53.144;6.244;2022-07-23T14:38:24;22.30;99.90
51733;DHT22;39139;53.144;6.244;2022-07-23T14:40:50;22.40;99.90
51733;DHT22;39139;53.144;6.244;2022-07-23T14:43:15;22.30;99.90
51733;DHT22;39139;53.144;6.244;2022-07-23T14:45:41;22.30;99.90
51733;DHT22;39139;53.144;6.244;2022-07-23T14:48:07;22.30;99.90
51733;DHT22;39139;53.144;6.244;2022-07-23T14:50:33;22.30;99.90
51733;DHT22;39139;53.144;6.244;2022-07-23T14:52:59;22.30;99.90
51733;DHT22;39139;53.144;6.244;2022-07-23T14:55:24;22.30;99.90
51733;DHT22;39139;53.144;6.244;2022-07-23T14:57:50;22.20;99.90
51733;DHT22;39139;53.144;6.244;2022-07-23T15:00:16;22.20;99.90
51733;DHT22;39139;53.144;6.244;2022-07-23T15:02:41;22.20;99.90
51733;DHT22;39139;53.144;6.244;2022-07-23T15:05:07;22.20;99.90
51733;DHT22;39139;53.144;6.244;2022-07-23T15:07:33;22.20;99.90
51733;DHT22;39139;53.144;6.244;2022-07-23T15:10:00;22.20;99.90
51733;DHT22;39139;53.144;6.244;2022-07-23T15:12:26;22.30;99.90
51733;DHT22;39139;53.144;6.244;2022-07-23T15:14:52;22.30;99.90
51733;DHT22;39139;53.144;6.244;2022-07-23T15:17:18;22.30;99.90
51733;DHT22;39139;53.144;6.244;2022-07-23T15:19:44;22.30;99.90
51733;DHT22;39139;53.144;6.244;2022-07-23T15:22:09;22.10;99.90
51733;DHT22;39139;53.144;6.244;2022-07-23T15:24:35;22.00;99.90
51733;DHT22;39139;53.144;6.244;2022-07-23T15:27:00;22.00;99.90
51733;DHT22;39139;53.144;6.244;2022-07-23T15:29:26;22.00;99.90
51733;DHT22;39139;53.144;6.244;2022-07-23T15:31:52;22.10;99.90
51733;DHT22;39139;53.144;6.244;2022-07-23T15:34:17;22.10;99.90
51733;DHT22;39139;53.144;6.244;2022-07-23T15:36:43;22.20;99.90
51733;DHT22;39139;53.144;6.244;2022-07-23T15:39:08;22.30;99.90
51733;DHT22;39139;53.144;6.244;2022-07-23T15:41:34;22.30;99.90
51733;DHT22;39139;53.144;6.244;2022-07-23T15:44:00;22.30;99.90
51733;DHT22;39139;53.144;6.244;2022-07-23T15:46:25;22.40;99.90
51733;DHT22;39139;53.144;6.244;2022-07-23T15:48:51;22.40;99.90
51733;DHT22;39139;53.144;6.244;2022-07-23T15:51:17;22.40;99.90
51733;DHT22;39139;53.144;6.244;2022-07-23T15:53:43;22.40;99.90
51733;DHT22;39139;53.144;6.244;2022-07-23T15:56:09;22.30;99.90
51733;DHT22;39139;53.144;6.244;2022-07-23T15:58:36;22.20;99.90
51733;DHT22;39139;53.144;6.244;2022-07-23T16:01:03;22.00;99.90
51733;DHT22;39139;53.144;6.244;2022-07-23T16:03:33;21.90;99.90
51733;DHT22;39139;53.144;6.244;2022-07-23T16:05:59;21.80;99.90
51733;DHT22;39139;53.144;6.244;2022-07-23T16:08:24;21.70;99.90
51733;DHT22;39139;53.144;6.244;2022-07-23T16:10:50;21.60;99.90